Time;durP1;ratioP1;P1;durP2;ratioP2;P2;SDS_P1;SDS_P2;PMS_P1;PMS_P2;Temp;Humidity;BMP_temperature;BMP_pressure;BME280_temperature;BME280_humidity;BME280_pressure;Samples;Min_cycle;Max_cycle;Signal;HPM_P1;HPM_P2
2021/07/05 00:00:09;;;;;;;7.82;4.32;;;;;;;19.96;50.16;99735.78;5032164;28;20033;-64
2021/07/05 00:02:34;;;;;;;8.07;3.90;;;;;;;19.83;50.12;99726.41;5033086;28;20057;-64
2021/07/05 00:05:01;;;;;;;8.15;3.65;;;;;;;19.63;50.56;99705.22;5048856;28;20083;-64
2021/07/05 00:07:26;;;;;;;5.57;3.35;;;;;;;19.68;50.62;99720.09;5033666;28;20034;-63
2021/07/05 00:09:52;;;;;;;5.93;4.35;;;;;;;19.70;50.39;99721.63;5033476;28;20069;-63
2021/07/05 00:12:17;;;;;;;4.65;3.70;;;;;;;19.61;50.63;99729.00;5032932;28;20484;-64
2021/07/05 00:14:43;;;;;;;7.45;3.80;;;;;;;19.57;50.72;99724.97;5033165;28;20470;-64
2021/07/05 00:17:08;;;;;;;9.52;3.80;;;;;;;19.53;50.75;99739.09;5033501;28;20462;-64
2021/07/05 00:19:34;;;;;;;5.40;3.60;;;;;;;19.45;50.87;99740.88;5032362;28;20037;-62
2021/07/05 00:22:00;;;;;;;5.20;3.70;;;;;;;19.33;51.33;99740.47;5032153;28;20025;-64
2021/07/05 00:24:25;;;;;;;6.43;3.80;;;;;;;19.30;51.28;99745.41;5031620;28;20397;-62
2021/07/05 00:26:51;;;;;;;7.20;3.88;;;;;;;19.27;51.07;99733.03;5032761;28;20112;-63
2021/07/05 00:29:16;;;;;;;6.95;4.38;;;;;;;19.28;51.42;99733.91;5032700;28;20088;-64
2021/07/05 00:31:42;;;;;;;4.20;3.67;;;;;;;19.12;52.00;99733.00;5032471;28;20048;-63
2021/07/05 00:34:11;;;;;;;6.15;3.83;;;;;;;18.86;52.23;99712.47;5032753;28;20091;-64
2021/07/05 00:36:36;;;;;;;10.73;3.92;;;;;;;19.00;52.29;99745.31;5032361;28;20037;-64
2021/07/05 00:39:03;;;;;;;5.53;3.45;;;;;;;18.93;52.41;99739.75;5032213;28;20075;-64
2021/07/05 00:41:29;;;;;;;6.95;4.10;;;;;;;18.93;52.27;99734.31;5032440;28;20087;-62
2021/07/05 00:43:57;;;;;;;4.85;3.92;;;;;;;18.87;52.63;99727.72;5032651;28;20432;-63
2021/07/05 00:46:23;;;;;;;6.07;4.07;;;;;;;18.75;52.90;99729.19;5032619;28;20049;-63
2021/07/05 00:48:48;;;;;;;6.18;3.92;;;;;;;18.64;53.01;99725.03;5032613;28;20042;-63
2021/07/05 00:51:14;;;;;;;6.13;4.03;;;;;;;18.58;53.51;99740.13;5032342;28;20038;-64
2021/07/05 00:53:39;;;;;;;8.63;4.30;;;;;;;18.47;54.06;99727.81;5032143;28;20030;-64
2021/07/05 00:56:05;;;;;;;5.20;4.13;;;;;;;18.49;53.76;99738.50;5032647;28;20148;-63
2021/07/05 00:58:31;;;;;;;6.95;4.05;;;;;;;18.48;53.84;99742.25;5032193;28;20029;-63
2021/07/05 01:00:57;;;;;;;9.52;4.07;;;;;;;18.40;53.97;99742.25;5031743;28;20087;-62
2021/07/05 01:03:22;;;;;;;8.00;4.13;;;;;;;18.29;54.17;99738.06;5032711;28;20032;-64
2021/07/05 01:05:48;;;;;;;7.28;4.18;;;;;;;18.21;54.30;99741.69;5032313;28;20032;-64
2021/07/05 01:08:13;;;;;;;5.35;3.40;;;;;;;18.15;54.43;99748.66;5030420;28;20034;-63
2021/07/05 01:10:39;;;;;;;7.32;4.32;;;;;;;18.29;53.84;99747.06;5032022;28;20032;-63
2021/07/05 01:13:04;;;;;;;7.75;4.40;;;;;;;18.27;53.94;99743.69;5032411;28;20377;-63
2021/07/05 01:15:32;;;;;;;5.93;3.78;;;;;;;18.09;53.76;99722.25;5032206;28;20404;-63
2021/07/05 01:17:59;;;;;;;6.35;3.70;;;;;;;18.18;53.94;99742.88;5030899;28;20033;-63
2021/07/05 01:20:27;;;;;;;7.38;3.78;;;;;;;18.19;53.98;99755.41;5031855;28;20484;-64
2021/07/05 01:22:53;;;;;;;8.25;4.10;;;;;;;18.19;54.05;99754.53;5032444;28;20025;-64
2021/07/05 01:25:21;;;;;;;6.72;4.38;;;;;;;18.18;53.83;99759.13;5032022;28;20112;-63
2021/07/05 01:27:48;;;;;;;5.10;3.88;;;;;;;18.21;53.98;99752.53;5034529;28;20029;-64
2021/07/05 01:30:17;;;;;;;5.95;3.70;;;;;;;18.20;53.78;99750.81;5051481;28;20040;-63
2021/07/05 01:32:44;;;;;;;5.07;3.90;;;;;;;17.90;53.84;99712.63;5051904;28;20065;-65
2021/07/05 01:35:10;;;;;;;7.40;4.68;;;;;;;18.18;53.84;99756.44;5051148;28;20028;-64
2021/07/05 01:37:36;;;;;;;7.82;4.43;;;;;;;18.17;53.70;99753.88;5051448;28;20044;-63
2021/07/05 01:40:03;;;;;;;10.20;4.82;;;;;;;18.19;53.86;99755.41;5051280;28;20032;-62
2021/07/05 01:42:29;;;;;;;7.47;5.07;;;;;;;18.14;53.83;99746.97;5050886;28;20075;-61
2021/07/05 01:44:54;;;;;;;6.35;4.07;;;;;;;18.13;53.85;99755.25;5049046;28;20060;-63
2021/07/05 01:47:20;;;;;;;4.75;4.05;;;;;;;18.17;53.63;99749.31;5050825;28;20437;-63
2021/07/05 01:49:45;;;;;;;7.15;4.35;;;;;;;18.13;54.06;99756.09;5048301;28;20124;-63
2021/07/05 01:52:12;;;;;;;8.77;4.10;;;;;;;18.08;53.40;99753.91;5051417;28;20033;-63
2021/07/05 01:54:38;;;;;;;7.03;3.65;;;;;;;18.13;53.99;99750.69;5051401;28;20067;-63
2021/07/05 01:57:04;;;;;;;7.07;4.18;;;;;;;18.12;53.82;99758.97;5051196;28;20072;-63
2021/07/05 01:59:30;;;;;;;10.18;4.28;;;;;;;18.09;54.04;99760.19;5050799;28;20076;-63
2021/07/05 02:01:55;;;;;;;6.00;4.07;;;;;;;18.11;53.66;99760.00;5051998;28;20037;-64
2021/07/05 02:04:25;;;;;;;6.70;3.58;;;;;;;17.83;53.68;99723.31;5047528;28;20377;-63
2021/07/05 02:06:51;;;;;;;5.30;3.70;;;;;;;18.11;53.15;99768.13;5049043;28;20441;-63
2021/07/05 02:09:16;;;;;;;6.38;4.13;;;;;;;18.16;53.21;99761.19;5048847;28;20091;-63
2021/07/05 02:11:42;;;;;;;4.82;3.60;;;;;;;18.17;53.39;99765.56;5050113;28;20033;-64
2021/07/05 02:14:08;;;;;;;8.23;3.63;;;;;;;18.12;53.51;99757.13;5050794;28;20029;-63
2021/07/05 02:16:35;;;;;;;10.15;3.90;;;;;;;18.10;53.84;99767.31;5050713;28;20096;-63
2021/07/05 02:19:00;;;;;;;8.07;3.90;;;;;;;18.24;53.07;99775.69;5050631;28;20102;-61
2021/07/05 02:21:26;;;;;;;4.80;3.75;;;;;;;18.39;52.62;99776.66;5050794;28;20059;-63
2021/07/05 02:23:51;;;;;;;6.38;3.63;;;;;;;18.64;51.65;99768.41;5051011;28;20032;-64
2021/07/05 02:26:17;;;;;;;7.72;3.88;;;;;;;18.92;50.60;99765.19;5049595;28;20060;-64
2021/07/05 02:28:42;;;;;;;6.28;3.92;;;;;;;19.04;50.64;99765.63;5050606;28;20091;-63
2021/07/05 02:31:09;;;;;;;7.80;3.90;;;;;;;19.26;49.63;99772.06;5050853;28;20028;-62
2021/07/05 02:33:35;;;;;;;5.22;3.35;;;;;;;19.33;49.15;99753.19;5050532;28;20389;-62
2021/07/05 02:36:06;;;;;;;6.88;4.07;;;;;;;19.77;48.17;99786.88;5051003;28;20029;-63
2021/07/05 02:38:34;;;;;;;5.90;3.58;;;;;;;19.98;48.15;99779.91;5050858;28;20032;-62
2021/07/05 02:41:00;;;;;;;5.53;3.42;;;;;;;20.42;46.27;99787.22;5051028;28;20061;-64
2021/07/05 02:43:26;;;;;;;5.18;3.85;;;;;;;20.75;45.54;99770.47;5051391;28;20039;-65
2021/07/05 02:45:54;;;;;;;4.28;3.47;;;;;;;21.01;44.89;99779.13;5050705;28;20128;-64
2021/07/05 02:48:23;;;;;;;5.93;3.58;;;;;;;21.23;44.10;99785.44;5050428;28;20103;-64
2021/07/05 02:50:56;;;;;;;6.53;3.42;;;;;;;21.19;44.47;99787.69;5050781;28;20045;-64
2021/07/05 02:53:22;;;;;;;4.28;3.30;;;;;;;21.03;44.78;99788.78;5050799;28;20052;-63
2021/07/05 02:55:48;;;;;;;5.00;3.13;;;;;;;20.79;44.72;99777.22;5050660;28;20045;-63
2021/07/05 02:58:15;;;;;;;5.97;3.67;;;;;;;20.79;44.99;99801.72;5050298;28;20082;-63
2021/07/05 03:00:43;;;;;;;5.63;3.30;;;;;;;20.74;45.22;99784.25;5051036;28;20155;-63
2021/07/05 03:03:10;;;;;;;5.50;3.72;;;;;;;20.77;45.36;99787.44;5049176;28;20033;-63
2021/07/05 03:05:35;;;;;;;6.80;3.55;;;;;;;20.90;45.16;99789.50;5049268;28;20036;-62
2021/07/05 03:08:01;;;;;;;6.20;3.67;;;;;;;21.12;44.58;99780.50;5050680;28;20037;-64
2021/07/05 03:10:33;;;;;;;4.75;3.78;;;;;;;21.55;43.88;99785.06;5050563;28;20103;-64
2021/07/05 03:13:00;;;;;;;4.97;3.13;;;;;;;22.00;42.61;99792.97;5050230;28;20480;-63
2021/07/05 03:15:27;;;;;;;5.07;3.63;;;;;;;22.42;41.64;99788.34;5050334;28;20055;-62
2021/07/05 03:17:52;;;;;;;4.20;3.28;;;;;;;22.93;40.98;99784.38;5050756;28;20052;-64
2021/07/05 03:20:21;;;;;;;6.68;4.00;;;;;;;23.43;39.59;99799.59;5050291;28;20131;-64
2021/07/05 03:22:48;;;;;;;6.32;3.65;;;;;;;23.86;38.52;99798.31;5050234;28;20037;-64
2021/07/05 03:25:17;;;;;;;5.90;3.22;;;;;;;24.15;38.24;99788.00;5052573;28;20104;-64
2021/07/05 03:27:42;;;;;;;4.85;3.50;;;;;;;24.39;37.13;99758.25;5054187;28;20025;-64
2021/07/05 03:30:10;;;;;;;7.10;3.40;;;;;;;24.84;36.44;99794.91;5053761;28;20028;-64
2021/07/05 03:32:36;;;;;;;9.55;3.47;;;;;;;25.20;35.77;99785.22;5053920;28;20131;-63
2021/07/05 03:35:04;;;;;;;5.57;3.10;;;;;;;25.78;34.35;99794.25;5053883;28;20041;-63
2021/07/05 03:37:29;;;;;;;7.90;3.50;;;;;;;26.08;34.14;99772.44;5054195;28;20051;-64
2021/07/05 03:39:55;;;;;;;4.80;3.05;;;;;;;26.59;32.95;99787.91;5053434;28;20465;-64
2021/07/05 03:42:20;;;;;;;9.90;3.15;;;;;;;26.91;32.02;99774.84;5053557;28;20029;-65
2021/07/05 03:44:46;;;;;;;4.85;3.25;;;;;;;27.33;32.06;99784.13;5053215;28;20029;-67
2021/07/05 03:47:11;;;;;;;8.63;3.67;;;;;;;27.61;31.45;99786.25;5052259;28;20511;-66
2021/07/05 03:49:37;;;;;;;7.65;3.55;;;;;;;27.75;31.10;99759.34;5053432;28;20067;-63
2021/07/05 03:52:03;;;;;;;5.82;3.58;;;;;;;28.20;30.43;99784.56;5053648;28;20040;-63
2021/07/05 03:54:28;;;;;;;5.55;2.90;;;;;;;28.56;29.72;99787.25;5051965;28;20033;-65
2021/07/05 03:56:54;;;;;;;5.80;3.33;;;;;;;29.02;29.02;99793.69;5053751;28;20024;-66
2021/07/05 03:59:19;;;;;;;5.57;3.00;;;;;;;29.49;28.09;99778.78;5053373;28;20064;-63
2021/07/05 04:01:45;;;;;;;7.60;3.13;;;;;;;29.90;27.45;99792.41;5053343;28;20036;-63
2021/07/05 04:04:10;;;;;;;4.18;3.15;;;;;;;30.28;26.90;99794.56;5051781;28;20036;-63
2021/07/05 04:06:36;;;;;;;4.22;2.80;;;;;;;30.67;26.34;99768.84;5053569;28;20055;-63
2021/07/05 04:09:04;;;;;;;6.15;3.00;;;;;;;31.39;24.37;99797.22;5053065;28;20040;-63
2021/07/05 04:11:31;;;;;;;5.43;3.17;;;;;;;32.01;24.13;99796.84;5052954;28;20060;-63
2021/07/05 04:13:56;;;;;;;5.47;2.67;;;;;;;32.52;23.65;99796.31;5051493;28;20632;-63
2021/07/05 04:16:21;;;;;;;4.53;2.70;;;;;;;33.19;22.77;99807.59;5051406;28;20116;-64
2021/07/05 04:18:47;;;;;;;4.82;2.92;;;;;;;33.86;21.99;99798.44;5051309;28;20457;-64
2021/07/05 04:21:12;;;;;;;4.53;2.92;;;;;;;34.67;21.12;99807.94;5051295;28;20531;-62
2021/07/05 04:23:38;;;;;;;4.70;2.60;;;;;;;35.19;20.22;99809.31;5052467;28;20044;-62
2021/07/05 04:26:03;;;;;;;4.70;2.55;;;;;;;35.61;19.49;99806.22;5053118;28;20033;-63
2021/07/05 04:28:30;;;;;;;4.53;2.78;;;;;;;35.88;18.75;99813.19;5052460;28;20044;-64
2021/07/05 04:30:56;;;;;;;5.32;2.67;;;;;;;36.45;18.43;99802.28;5052568;28;20033;-64
2021/07/05 04:33:22;;;;;;;5.65;2.53;;;;;;;36.92;17.34;99805.25;5052382;28;20078;-64
2021/07/05 04:48:00;;;;;;;8.60;2.88;;;;;;;39.48;13.97;99794.44;5083562;27;1344182;-66
2021/07/05 04:50:26;;;;;;;4.88;2.53;;;;;;;40.61;13.09;99793.25;5129056;28;20110;-65
2021/07/05 04:52:51;;;;;;;3.58;2.10;;;;;;;40.08;12.23;99785.84;5129716;28;20122;-69
2021/07/05 04:55:19;;;;;;;4.65;2.70;;;;;;;39.93;12.64;99804.78;5129428;28;20084;-69
2021/07/05 04:57:46;;;;;;;6.13;2.70;;;;;;;40.12;12.75;99820.50;5129263;28;20070;-68
2021/07/05 05:00:27;;;;;;;4.60;2.35;;;;;;;40.63;12.52;99804.19;5128824;28;20027;-67
2021/07/05 05:02:53;;;;;;;4.45;2.25;;;;;;;40.79;11.85;99776.47;5129611;28;20027;-66
2021/07/05 05:05:21;;;;;;;3.75;2.25;;;;;;;41.30;11.69;99816.13;5129444;28;20035;-68
2021/07/05 05:07:46;;;;;;;5.15;2.20;;;;;;;41.74;11.31;99801.19;5128722;28;20110;-68
2021/07/05 05:10:13;;;;;;;2.45;2.25;;;;;;;42.18;10.98;99803.84;5128988;28;20106;-68
2021/07/05 05:12:39;;;;;;;2.90;1.92;;;;;;;42.72;10.55;99774.22;5129155;28;20467;-68
2021/07/05 05:15:08;;;;;;;3.42;2.05;;;;;;;43.48;9.61;99799.59;5128615;28;20044;-67
2021/07/05 05:17:34;;;;;;;4.13;2.35;;;;;;;44.13;9.84;99779.31;5128399;28;20069;-67
2021/07/05 05:20:00;;;;;;;3.83;2.40;;;;;;;44.44;9.21;99802.41;5128090;28;20031;-68
2021/07/05 05:22:25;;;;;;;2.65;2.13;;;;;;;44.78;8.81;99774.00;5129555;28;20026;-68
2021/07/05 05:24:51;;;;;;;4.43;2.20;;;;;;;45.12;8.66;99794.41;5129008;28;20027;-69
2021/07/05 05:27:17;;;;;;;9.88;2.15;;;;;;;44.68;8.37;99797.91;5128123;28;20440;-68
2021/07/05 05:29:42;;;;;;;3.30;2.30;;;;;;;43.62;8.55;99792.81;5128274;28;20043;-70
2021/07/05 05:32:08;;;;;;;2.95;1.80;;;;;;;43.27;8.69;99793.97;5128679;28;20024;-69
2021/07/05 05:34:33;;;;;;;3.72;2.40;;;;;;;43.88;9.10;99796.16;5128778;28;20032;-67
2021/07/05 05:36:59;;;;;;;3.95;2.20;;;;;;;44.76;8.53;99776.38;5128085;28;20114;-67
2021/07/05 05:39:24;;;;;;;5.25;1.92;;;;;;;45.11;8.25;99796.41;5128612;28;20352;-67
2021/07/05 05:41:50;;;;;;;3.47;2.00;;;;;;;45.02;8.03;99801.41;5128799;28;20404;-67
2021/07/05 05:44:15;;;;;;;7.35;2.38;;;;;;;45.22;7.92;99798.69;5128274;28;20028;-67
2021/07/05 05:46:41;;;;;;;3.58;2.10;;;;;;;45.46;7.76;99794.97;5125053;28;20062;-69
2021/07/05 05:49:07;;;;;;;5.32;2.08;;;;;;;44.11;8.14;99792.91;5114243;28;20038;-69
2021/07/05 05:51:33;;;;;;;4.68;2.28;;;;;;;43.54;8.61;99772.84;5114420;28;20032;-67
2021/07/05 05:54:07;;;;;;;3.30;2.05;;;;;;;43.47;8.91;99803.59;5114827;28;20103;-67
2021/07/05 05:56:34;;;;;;;11.85;2.30;;;;;;;42.82;8.84;99795.50;5114288;28;20028;-68
2021/07/05 05:59:03;;;;;;;3.33;2.40;;;;;;;43.05;8.69;99800.81;5114177;28;20032;-70
2021/07/05 06:01:30;;;;;;;6.82;2.20;;;;;;;42.87;8.50;99798.16;5114416;28;20523;-68
2021/07/05 06:03:56;;;;;;;5.00;2.08;;;;;;;42.37;9.16;99792.16;5114799;28;20036;-69
2021/07/05 06:06:21;;;;;;;2.17;1.92;;;;;;;43.30;8.74;99794.13;5114293;28;20031;-69
2021/07/05 06:08:47;;;;;;;2.55;2.03;;;;;;;42.88;8.91;99791.34;5114062;28;20035;-68
2021/07/05 06:11:13;;;;;;;3.80;1.90;;;;;;;43.57;8.56;99783.41;5114331;28;20035;-70
2021/07/05 06:13:38;;;;;;;4.80;2.00;;;;;;;44.53;7.80;99786.22;5114008;28;20507;-69
2021/07/05 06:16:04;;;;;;;4.68;2.13;;;;;;;45.71;7.32;99775.00;5113117;28;20131;-67
2021/07/05 06:18:30;;;;;;;4.03;2.20;;;;;;;45.74;7.27;99785.59;5113380;28;20024;-67
2021/07/05 06:20:55;;;;;;;3.63;1.80;;;;;;;44.44;6.75;99760.91;5113819;28;20027;-65
2021/07/05 06:23:25;;;;;;;3.00;2.40;;;;;;;43.76;8.02;99786.88;5113088;28;20387;-66
2021/07/05 06:25:50;;;;;;;6.50;2.42;;;;;;;43.54;7.85;99788.94;5113320;28;20072;-67
2021/07/05 06:28:18;;;;;;;4.63;2.25;;;;;;;42.77;8.85;99793.72;5113677;28;20020;-66
2021/07/05 06:30:47;;;;;;;5.70;2.10;;;;;;;42.91;8.75;99790.66;5113079;28;20046;-72
2021/07/05 06:33:13;;;;;;;4.75;2.20;;;;;;;43.92;8.67;99787.03;5113248;28;20472;-66
2021/07/05 06:35:40;;;;;;;5.68;2.80;;;;;;;44.45;7.90;99787.13;5113547;28;20039;-66
2021/07/05 06:38:05;;;;;;;5.38;2.22;;;;;;;45.24;7.40;99799.97;5112772;28;20076;-65
2021/07/05 06:40:31;;;;;;;3.92;2.45;;;;;;;45.27;7.29;99796.44;5098254;28;20032;-67
2021/07/05 06:42:57;;;;;;;4.38;2.40;;;;;;;45.17;7.17;99772.34;5095117;28;20043;-64
2021/07/05 06:45:23;;;;;;;3.42;2.50;;;;;;;45.18;7.38;99798.59;5112151;28;20099;-64
2021/07/05 06:47:48;;;;;;;4.05;2.05;;;;;;;45.30;6.71;99767.44;5094166;28;20543;-64
2021/07/05 06:50:15;;;;;;;2.75;2.13;;;;;;;45.99;6.41;99791.91;5113143;28;20039;-65
2021/07/05 06:52:40;;;;;;;3.13;2.20;;;;;;;45.29;6.35;99796.88;5113225;28;20024;-65
2021/07/05 06:55:06;;;;;;;3.70;2.20;;;;;;;44.86;6.77;99747.66;5112414;28;20031;-65
2021/07/05 06:57:34;;;;;;;5.13;1.92;;;;;;;45.98;6.49;99778.13;5109650;28;20091;-66
2021/07/05 07:00:14;;;;;;;3.13;2.20;;;;;;;46.85;6.26;99794.28;5100274;28;20529;-66
2021/07/05 07:02:40;;;;;;;4.55;2.10;;;;;;;47.79;5.83;99793.31;5101983;28;20051;-64
2021/07/05 07:05:07;;;;;;;4.28;2.40;;;;;;;47.98;5.46;99783.06;5084299;28;20027;-65
2021/07/05 07:07:32;;;;;;;2.58;2.33;;;;;;;46.93;6.19;99787.59;5101667;28;20024;-65
2021/07/05 07:09:59;;;;;;;2.50;2.30;;;;;;;46.97;6.69;99765.03;5101470;28;20475;-65
2021/07/05 07:12:24;;;;;;;3.05;2.40;;;;;;;48.20;5.84;99777.75;5102673;28;20468;-65
2021/07/05 07:14:50;;;;;;;2.20;2.08;;;;;;;48.20;5.91;99786.25;5101849;28;20190;-64
2021/07/05 07:19:43;;;;;;;4.53;2.38;;;;;;;45.78;7.58;99780.06;5101066;28;20031;-66
2021/07/05 07:22:09;;;;;;;4.97;2.35;;;;;;;46.10;7.72;99768.69;5092349;28;20035;-65
2021/07/05 07:24:34;;;;;;;4.28;2.33;;;;;;;47.08;7.27;99779.41;5091977;28;20035;-64
2021/07/05 07:27:01;;;;;;;5.40;2.65;;;;;;;47.36;6.85;99798.19;5092096;28;20032;-69
2021/07/05 07:29:27;;;;;;;5.25;2.75;;;;;;;47.51;6.77;99768.09;5092401;28;20036;-70
2021/07/05 07:31:53;;;;;;;4.30;2.58;;;;;;;47.88;6.45;99778.03;5091787;28;20040;-65
2021/07/05 07:34:20;;;;;;;6.68;2.60;;;;;;;47.37;6.89;99748.81;5091389;28;20028;-65
2021/07/05 07:36:45;;;;;;;8.18;2.65;;;;;;;48.00;6.86;99789.19;5091863;28;20115;-65
2021/07/05 07:39:15;;;;;;;5.13;2.65;;;;;;;48.38;6.83;99767.47;5092128;28;20225;-65
2021/07/05 07:41:40;;;;;;;6.78;2.88;;;;;;;48.68;6.34;99780.88;5091353;28;20370;-65
2021/07/05 07:44:06;;;;;;;2.45;2.25;;;;;;;48.41;6.67;99782.97;5091311;28;20035;-68
2021/07/05 07:46:31;;;;;;;3.08;2.50;;;;;;;49.29;6.07;99780.00;5073843;28;20374;-66
2021/07/05 07:48:58;;;;;;;4.72;2.88;;;;;;;49.66;6.13;99786.88;5074352;28;20036;-65
2021/07/05 07:51:24;;;;;;;3.35;2.80;;;;;;;49.58;5.89;99790.88;5091624;28;20032;-66
2021/07/05 07:53:49;;;;;;;4.53;2.80;;;;;;;49.29;5.96;99774.31;5073496;28;20413;-64
2021/07/05 07:56:16;;;;;;;2.70;2.50;;;;;;;48.07;6.54;99780.81;5091585;28;20023;-66
2021/07/05 07:58:41;;;;;;;5.38;3.00;;;;;;;46.10;7.28;99778.03;5073274;28;20036;-64
2021/07/05 08:01:08;;;;;;;3.50;2.83;;;;;;;45.42;8.19;99769.41;5096199;28;20043;-69
2021/07/05 08:03:34;;;;;;;3.70;2.72;;;;;;;45.90;7.90;99782.78;5099777;28;20031;-66
2021/07/05 08:06:00;;;;;;;3.67;2.40;;;;;;;46.73;7.19;99773.41;5101419;28;20081;-67
2021/07/05 08:08:25;;;;;;;3.70;2.58;;;;;;;47.00;6.82;99770.75;5100312;28;20027;-63
2021/07/05 08:10:51;;;;;;;3.67;2.58;;;;;;;47.08;7.48;99768.06;5100913;28;20110;-69
2021/07/05 08:13:17;;;;;;;7.35;3.17;;;;;;;47.59;7.16;99775.50;5083091;28;20468;-76
2021/07/05 08:15:43;;;;;;;3.33;2.85;;;;;;;47.35;6.86;99779.53;5100243;28;20079;-77
2021/07/05 08:18:08;;;;;;;4.15;2.70;;;;;;;47.21;6.81;99769.53;5099707;28;20032;-69
2021/07/05 08:20:34;;;;;;;5.70;3.05;;;;;;;46.95;7.36;99771.06;5100047;28;20072;-65
2021/07/05 08:22:59;;;;;;;4.70;2.53;;;;;;;46.77;7.40;99759.34;5103251;28;20032;-68
2021/07/05 08:25:26;;;;;;;3.30;2.75;;;;;;;46.21;7.76;99769.81;5099923;28;20031;-71
2021/07/05 08:27:54;;;;;;;2.85;2.60;;;;;;;44.59;8.33;99775.47;5101008;28;20364;-69
2021/07/05 08:30:21;;;;;;;3.30;3.10;;;;;;;41.97;10.27;99767.22;5082019;28;20457;-67
2021/07/05 08:32:49;;;;;;;4.60;2.75;;;;;;;39.74;12.40;99772.19;5101918;28;20103;-69
2021/07/05 08:35:15;;;;;;;3.85;2.50;;;;;;;37.75;13.41;99778.00;5085156;28;20031;-69
2021/07/05 08:37:40;;;;;;;4.93;3.00;;;;;;;34.74;15.71;99752.84;5098794;28;20479;-68
2021/07/05 08:40:07;;;;;;;3.92;2.63;;;;;;;33.05;18.33;99798.97;5087471;28;20588;-68
2021/07/05 08:42:35;;;;;;;4.22;3.10;;;;;;;32.14;19.05;99782.53;5101306;28;20032;-67
2021/07/05 08:45:01;;;;;;;7.72;3.08;;;;;;;31.46;20.81;99780.41;5100465;28;20028;-68
2021/07/05 08:47:30;;;;;;;4.88;2.60;;;;;;;30.97;21.07;99789.59;5101852;28;20046;-68
2021/07/05 08:49:58;;;;;;;5.78;3.00;;;;;;;30.55;21.33;99772.56;5100501;28;20028;-66
2021/07/05 08:52:24;;;;;;;4.57;2.30;;;;;;;30.24;21.45;99761.09;5099953;28;20113;-67
2021/07/05 08:54:49;;;;;;;6.18;2.70;;;;;;;29.77;21.96;99749.41;5104884;28;20460;-74
2021/07/05 08:57:28;;;;;;;3.80;2.78;;;;;;;29.73;22.28;99783.31;5084225;28;20035;-76
2021/07/05 08:59:55;;;;;;;6.30;2.72;;;;;;;29.25;23.16;99772.56;5101986;28;20460;-67
2021/07/05 09:02:21;;;;;;;4.40;2.88;;;;;;;28.73;23.57;99755.09;5101761;28;20059;-77
2021/07/05 09:04:50;;;;;;;10.43;3.15;;;;;;;28.78;24.29;99813.03;5083644;28;20389;-77
2021/07/05 09:07:16;;;;;;;5.55;3.13;;;;;;;28.35;24.12;99775.81;5103647;28;20464;-78
2021/07/05 09:10:05;;;;;;;3.78;2.80;;;;;;;28.05;24.36;99772.09;5101475;28;20034;-74
2021/07/05 09:12:33;;;;;;;4.53;2.60;;;;;;;27.78;25.04;99793.78;5100287;28;20251;-76
2021/07/05 09:15:08;;;;;;;6.63;2.58;;;;;;;27.89;24.70;99797.63;5082705;28;20363;-70
2021/07/05 09:17:35;;;;;;;4.50;3.00;;;;;;;27.96;25.48;99783.72;5116697;28;20036;-73
2021/07/05 09:20:18;;;;;;;3.03;2.80;;;;;;;27.82;26.32;99785.88;5112557;28;20487;-72
2021/07/05 09:23:10;;;;;;;4.53;3.50;;;;;;;27.78;25.77;99786.38;5101659;28;20031;-76
2021/07/05 09:25:47;;;;;;;4.45;3.10;;;;;;;27.45;25.89;99756.66;5091310;28;20036;-69
2021/07/05 09:28:18;;;;;;;3.35;3.05;;;;;;;27.66;26.51;99774.53;5109026;27;20093;-74
2021/07/05 09:30:47;;;;;;;5.35;3.05;;;;;;;27.87;25.98;99773.09;5092473;28;20031;-75
2021/07/05 09:33:15;;;;;;;4.55;3.08;;;;;;;27.91;25.49;99755.03;5107722;28;20027;-77
2021/07/05 09:35:40;;;;;;;3.40;3.10;;;;;;;27.89;25.44;99751.69;5109044;28;20035;-81
2021/07/05 09:38:05;;;;;;;4.57;3.05;;;;;;;27.73;26.03;99766.16;5102402;28;20031;-73
2021/07/05 09:40:31;;;;;;;3.80;3.13;;;;;;;27.62;26.61;99763.16;5110794;28;20549;-78
2021/07/05 09:42:57;;;;;;;5.20;3.10;;;;;;;27.73;26.73;99768.91;5092323;28;20024;-73
2021/07/05 09:45:22;;;;;;;6.28;3.70;;;;;;;27.69;26.34;99763.06;5085997;28;20051;-73
2021/07/05 09:48:12;;;;;;;4.47;3.25;;;;;;;27.76;25.93;99784.94;5087729;28;20052;-75
2021/07/05 09:50:38;;;;;;;4.85;3.10;;;;;;;27.63;26.59;99775.03;5074350;28;20047;-72
2021/07/05 09:53:44;;;;;;;4.60;3.10;;;;;;;27.52;26.40;99765.69;5087102;28;20026;-79
2021/07/05 09:56:22;;;;;;;3.23;2.93;;;;;;;27.40;26.72;99745.53;5103529;28;20060;-72
2021/07/05 09:58:52;;;;;;;5.43;3.38;;;;;;;27.62;26.63;99779.66;5087145;28;20259;-76
2021/07/05 10:01:40;;;;;;;7.80;3.45;;;;;;;27.91;26.21;99771.53;5102077;28;20783;-73
2021/07/05 10:04:09;;;;;;;4.05;3.45;;;;;;;27.95;26.09;99766.38;5087133;28;20463;-71
2021/07/05 10:06:47;;;;;;;5.55;3.00;;;;;;;28.19;25.60;99761.69;5082981;28;20031;-76
2021/07/05 10:09:17;;;;;;;3.13;2.83;;;;;;;28.11;26.22;99773.06;5066859;28;20090;-73
2021/07/05 10:11:42;;;;;;;6.38;3.25;;;;;;;28.26;25.72;99752.50;5084487;28;20399;-72
2021/07/05 10:14:13;;;;;;;5.78;3.30;;;;;;;28.57;26.34;99764.94;5105590;28;20023;-77
2021/07/05 10:16:41;;;;;;;7.47;3.38;;;;;;;28.68;25.85;99756.91;5084589;28;20032;-66
2021/07/05 10:19:07;;;;;;;3.20;2.72;;;;;;;28.96;25.52;99753.34;5103099;28;20020;-67
2021/07/05 10:21:35;;;;;;;6.22;3.50;;;;;;;29.08;25.19;99764.28;5104654;28;20032;-66
2021/07/05 10:24:03;;;;;;;6.55;3.45;;;;;;;28.94;25.02;99772.84;5083807;28;20024;-68
2021/07/05 10:26:30;;;;;;;8.23;3.40;;;;;;;28.46;26.11;99766.69;5102355;28;20110;-68
2021/07/05 10:28:56;;;;;;;4.45;3.17;;;;;;;28.22;25.98;99776.91;5105424;27;20554;-65
2021/07/05 10:31:22;;;;;;;4.68;3.05;;;;;;;28.02;25.43;99780.03;5114404;27;20038;-66
2021/07/05 10:33:47;;;;;;;5.97;3.42;;;;;;;27.85;25.43;99766.13;5104227;28;20043;-66
2021/07/05 10:36:13;;;;;;;4.97;2.80;;;;;;;27.76;25.82;99765.69;5103641;28;20514;-65
2021/07/05 10:38:50;;;;;;;3.67;2.85;;;;;;;27.94;25.49;99767.47;5100890;28;20391;-66
2021/07/05 10:41:18;;;;;;;6.45;3.28;;;;;;;27.85;26.12;99783.50;5083893;28;20031;-67
2021/07/05 10:43:53;;;;;;;7.65;3.65;;;;;;;27.68;26.17;99777.03;5102581;28;20050;-66
2021/07/05 10:46:42;;;;;;;5.28;3.15;;;;;;;27.68;26.17;99768.78;5102551;28;20055;-66
2021/07/05 10:49:32;;;;;;;3.83;3.00;;;;;;;27.61;26.41;99760.63;5102223;28;20469;-65
2021/07/05 10:52:01;;;;;;;6.07;2.97;;;;;;;27.92;25.97;99762.19;5092012;28;20050;-66
2021/07/05 10:54:41;;;;;;;3.25;2.70;;;;;;;28.26;25.57;99761.56;5100280;28;20028;-66
2021/07/05 10:57:07;;;;;;;3.67;3.15;;;;;;;28.29;25.07;99754.75;5101576;28;20801;-67
2021/07/05 10:59:34;;;;;;;5.65;3.17;;;;;;;28.02;25.71;99723.06;5086266;28;20032;-66
2021/07/05 11:02:01;;;;;;;4.63;2.90;;;;;;;28.00;26.13;99757.44;5100763;28;20023;-67
2021/07/05 11:04:31;;;;;;;3.30;2.97;;;;;;;27.96;26.22;99767.22;5101760;28;20364;-65
2021/07/05 11:07:15;;;;;;;5.03;3.17;;;;;;;28.08;25.95;99765.28;5103051;28;20032;-66
2021/07/05 11:09:59;;;;;;;3.42;2.67;;;;;;;27.96;25.81;99761.72;5105920;27;20038;-65
2021/07/05 11:12:30;;;;;;;4.80;3.00;;;;;;;27.91;26.04;99752.28;5101113;28;20214;-67
2021/07/05 11:14:56;;;;;;;5.97;2.75;;;;;;;27.83;25.82;99738.88;5100573;28;20032;-65
2021/07/05 11:17:23;;;;;;;4.75;3.00;;;;;;;27.54;26.01;99757.19;5105386;28;20070;-65
2021/07/05 11:20:14;;;;;;;6.25;2.95;;;;;;;27.54;26.43;99760.78;5098463;28;20043;-66
2021/07/05 11:22:52;;;;;;;2.72;2.53;;;;;;;27.57;26.25;99763.06;5103136;28;20036;-67
2021/07/05 11:25:18;;;;;;;5.15;3.35;;;;;;;27.57;26.37;99746.56;5100239;28;20027;-67
2021/07/05 11:27:52;;;;;;;5.63;2.72;;;;;;;27.64;26.44;99739.00;5082968;28;20070;-66
2021/07/05 11:30:33;;;;;;;7.05;3.30;;;;;;;27.79;26.18;99754.22;5080580;28;20062;-66
2021/07/05 11:33:02;;;;;;;5.95;2.92;;;;;;;27.67;26.49;99762.47;5100524;28;20032;-67
2021/07/05 11:35:36;;;;;;;4.13;3.03;;;;;;;27.71;26.84;99746.28;5100109;28;20101;-69
2021/07/05 11:38:24;;;;;;;3.30;2.95;;;;;;;27.54;26.42;99751.69;5099639;28;20028;-68
2021/07/05 11:41:11;;;;;;;6.60;3.20;;;;;;;27.41;26.24;99749.97;5098223;28;20028;-69
2021/07/05 11:44:26;;;;;;;4.53;2.60;;;;;;;27.19;27.05;99734.88;5080901;28;20487;-70
2021/07/05 11:46:41;;;;;;;5.88;2.88;;;;;;;27.25;26.75;99730.38;5096872;27;20434;-70
2021/07/05 11:49:18;;;;;;;4.53;2.60;;;;;;;27.26;26.50;99737.53;5083309;28;20194;-68
2021/07/05 11:52:03;;;;;;;4.20;2.97;;;;;;;27.36;26.71;99746.03;5097784;28;20043;-69
2021/07/05 11:54:36;;;;;;;4.32;2.65;;;;;;;27.37;26.62;99746.88;5098373;28;20046;-69